createdAt,value
2019-02-25T00:01:32.584Z,66.80
2019-02-25T00:07:32.528Z,61.40
2019-02-25T00:13:32.525Z,58.00
2019-02-25T00:19:32.519Z,52.90
2019-02-25T00:25:32.542Z,50.80
2019-02-25T00:31:32.621Z,47.90
2019-02-25T00:37:32.542Z,49.10
2019-02-25T00:43:32.752Z,43.10
2019-02-25T00:49:32.588Z,41.90
2019-02-25T00:55:32.576Z,39.30
2019-02-25T01:01:32.592Z,36.50
2019-02-25T01:07:32.700Z,33.30
2019-02-25T01:13:32.590Z,31.70
2019-02-25T01:19:32.651Z,29.90
2019-02-25T01:25:32.667Z,30.00
2019-02-25T01:31:32.563Z,27.90
2019-02-25T01:37:32.617Z,450.10
2019-02-25T01:43:32.580Z,224.60
2019-02-25T01:49:32.626Z,152.50
2019-02-25T01:55:32.666Z,164.10
2019-02-25T02:01:32.605Z,145.90
2019-02-25T02:07:32.645Z,135.40
2019-02-25T02:13:32.588Z,133.00
2019-02-25T02:19:32.662Z,124.00
2019-02-25T02:25:32.688Z,120.30
2019-02-25T02:31:32.614Z,108.50
2019-02-25T02:37:32.613Z,101.10
2019-02-25T02:43:32.595Z,97.30
2019-02-25T02:49:32.615Z,95.00
2019-02-25T02:55:32.730Z,88.10
2019-02-25T03:01:32.609Z,85.60
2019-02-25T03:07:32.656Z,77.80
2019-02-25T03:13:32.708Z,74.20
2019-02-25T03:19:32.877Z,69.50
2019-02-25T03:25:32.652Z,66.70
2019-02-25T03:31:32.672Z,62.50
2019-02-25T03:37:32.655Z,60.00
2019-02-25T03:43:32.659Z,56.70
2019-02-25T03:49:32.653Z,53.80
2019-02-25T03:55:32.673Z,50.40
2019-02-25T04:01:32.667Z,47.00
2019-02-25T04:07:32.672Z,45.50
2019-02-25T04:13:32.664Z,42.60
2019-02-25T04:19:32.736Z,41.00
2019-02-25T04:25:32.693Z,39.10
2019-02-25T04:31:32.739Z,37.10
2019-02-25T04:37:32.755Z,36.40
2019-02-25T04:43:32.713Z,33.90
2019-02-25T04:49:32.701Z,33.80
2019-02-25T04:55:32.696Z,30.90
2019-02-25T05:01:32.814Z,29.20
2019-02-25T05:07:32.754Z,29.20
2019-02-25T05:13:32.719Z,28.10
2019-02-25T05:19:32.716Z,25.40
2019-02-25T05:25:32.729Z,26.10
2019-02-25T05:31:32.790Z,23.40
2019-02-25T05:37:32.730Z,23.40
2019-02-25T05:43:32.738Z,22.40
2019-02-25T05:49:32.748Z,22.30
2019-02-25T05:55:32.739Z,20.40
2019-02-25T06:01:32.745Z,19.50
2019-02-25T06:07:32.858Z,18.20
2019-02-25T06:13:32.759Z,16.90
2019-02-25T06:19:32.834Z,16.40
2019-02-25T06:25:32.871Z,15.90
2019-02-25T06:31:32.772Z,15.80
2019-02-25T06:37:32.825Z,15.20
2019-02-25T06:43:32.772Z,17.00
2019-02-25T06:49:32.792Z,17.10
2019-02-25T06:55:32.823Z,14.50
2019-02-25T07:01:32.782Z,15.20
2019-02-25T07:07:32.793Z,15.30
2019-02-25T07:13:32.792Z,13.20
2019-02-25T07:19:32.796Z,14.90
2019-02-25T07:25:32.810Z,15.50
2019-02-25T07:31:32.841Z,16.00
2019-02-25T07:37:32.801Z,13.10
2019-02-25T07:43:32.809Z,13.60
2019-02-25T07:49:32.810Z,12.70
2019-02-25T07:55:32.836Z,13.70
2019-02-25T08:01:32.810Z,12.30
2019-02-25T08:07:32.885Z,10.80
2019-02-25T08:13:32.871Z,11.50
2019-02-25T08:19:32.961Z,10.90
2019-02-25T08:25:32.848Z,11.50
2019-02-25T08:31:32.952Z,149.90
2019-02-25T08:37:32.980Z,184.80
2019-02-25T08:43:32.871Z,148.80
2019-02-25T08:49:32.950Z,136.60
2019-02-25T08:55:32.964Z,111.40
2019-02-25T09:01:32.896Z,214.90
2019-02-25T09:07:32.943Z,326.30
2019-02-25T09:13:32.881Z,198.60
2019-02-25T09:19:32.951Z,146.10
2019-02-25T09:25:32.967Z,143.50
2019-02-25T09:31:32.944Z,123.50
2019-02-25T09:37:32.884Z,274.60
2019-02-25T09:43:32.882Z,333.60
2019-02-25T09:49:32.862Z,167.60
2019-02-25T09:55:32.880Z,249.00
2019-02-25T10:01:32.895Z,258.00
2019-02-25T10:07:32.893Z,215.60
2019-02-25T10:13:32.959Z,209.30
2019-02-25T10:19:34.763Z,184.90
2019-02-25T10:25:32.986Z,174.60
2019-02-25T10:31:32.970Z,191.10
2019-02-25T10:37:34.273Z,232.50
2019-02-25T10:43:34.576Z,244.40
2019-02-25T10:49:33.688Z,210.80
2019-02-25T10:55:32.924Z,181.70
2019-02-25T11:01:33.174Z,218.40
2019-02-25T11:07:34.757Z,243.90
2019-02-25T11:13:34.647Z,226.50
2019-02-25T11:19:33.096Z,204.50
2019-02-25T11:25:32.965Z,181.30
2019-02-25T11:31:33.044Z,153.00
2019-02-25T11:37:32.990Z,138.00
2019-02-25T11:43:33.159Z,132.70
2019-02-25T11:49:33.001Z,116.30
2019-02-25T11:55:34.024Z,144.20
2019-02-25T12:01:33.048Z,210.00
2019-02-25T12:07:32.972Z,205.10
2019-02-25T12:13:33.027Z,168.80
2019-02-25T12:19:33.075Z,222.20
2019-02-25T12:25:33.009Z,280.10
2019-02-25T12:31:33.239Z,238.10
2019-02-25T12:37:33.001Z,209.30
2019-02-25T12:43:33.028Z,187.20
2019-02-25T12:49:33.199Z,193.60
2019-02-25T12:55:33.017Z,265.60
2019-02-25T13:01:33.062Z,248.10
2019-02-25T13:07:33.015Z,279.70
2019-02-25T13:13:33.051Z,268.00
2019-02-25T13:19:33.085Z,247.70
2019-02-25T13:25:33.027Z,207.50
2019-02-25T13:31:33.046Z,182.60
2019-02-25T13:37:33.107Z,162.60
2019-02-25T13:43:33.067Z,151.60
2019-02-25T13:49:33.083Z,137.60
2019-02-25T13:55:33.053Z,120.20
2019-02-25T14:01:33.072Z,109.50
2019-02-25T14:07:34.284Z,102.90
2019-02-25T14:13:33.055Z,82.10
2019-02-25T14:19:33.103Z,75.60
2019-02-25T14:25:33.101Z,66.90
2019-02-25T14:31:33.186Z,65.90
2019-02-25T14:37:33.200Z,59.60
2019-02-25T14:43:36.530Z,53.00
2019-02-25T14:49:35.170Z,57.50
2019-02-25T14:55:33.421Z,183.20
2019-02-25T15:01:33.182Z,131.40
2019-02-25T15:07:33.212Z,137.60
2019-02-25T15:13:34.570Z,181.90
2019-02-25T15:19:34.398Z,165.30
2019-02-25T15:25:33.477Z,144.10
2019-02-25T15:31:33.268Z,113.60
2019-02-25T15:37:33.197Z,152.60
2019-02-25T15:49:33.312Z,151.00
2019-02-25T15:55:33.243Z,148.80
2019-02-25T16:01:33.232Z,141.80
2019-02-25T16:07:33.782Z,149.50
2019-02-25T16:13:33.245Z,174.30
2019-02-25T16:19:39.251Z,212.90
2019-02-25T16:25:34.477Z,177.30
2019-02-25T16:31:33.733Z,160.90
2019-02-25T16:37:33.834Z,142.90
2019-02-25T16:43:33.322Z,131.80
2019-02-25T16:49:33.980Z,153.90
2019-02-25T16:55:33.290Z,165.50
2019-02-25T17:01:34.982Z,161.40
2019-02-25T17:07:33.197Z,148.60
2019-02-25T17:13:34.878Z,134.30
2019-02-25T17:19:33.244Z,128.30
2019-02-25T17:25:34.021Z,127.50
2019-02-25T17:31:34.544Z,118.00
2019-02-25T17:37:33.862Z,104.70
2019-02-25T17:43:34.256Z,103.20
2019-02-25T17:49:33.684Z,88.90
2019-02-25T17:55:34.455Z,81.90
2019-02-25T18:01:33.386Z,76.80
2019-02-25T18:07:33.271Z,71.20
2019-02-25T18:13:34.995Z,64.60
2019-02-25T18:19:33.352Z,60.30
2019-02-25T18:25:33.353Z,55.90
2019-02-25T18:31:33.319Z,50.00
2019-02-25T18:37:33.281Z,41.00
2019-02-25T18:43:33.390Z,59.70
2019-02-25T18:49:34.975Z,179.70
2019-02-25T18:55:34.189Z,127.50
2019-02-25T19:01:33.351Z,113.20
2019-02-25T19:07:33.752Z,112.30
2019-02-25T19:13:33.336Z,102.80
2019-02-25T19:19:34.233Z,108.00
2019-02-25T19:25:33.359Z,203.60
2019-02-25T19:31:34.485Z,198.60
2019-02-25T19:37:37.566Z,114.20
2019-02-25T19:43:33.508Z,110.00
2019-02-25T19:49:34.283Z,110.20
2019-02-25T19:55:33.931Z,111.20
2019-02-25T20:01:33.377Z,149.40
2019-02-25T20:07:35.488Z,206.40
2019-02-25T20:13:33.453Z,168.80
2019-02-25T20:19:33.387Z,693.10
2019-02-25T20:29:30.232Z,284.50
2019-02-25T20:35:31.360Z,213.90
2019-02-25T20:41:31.004Z,184.00
2019-02-25T20:47:30.311Z,167.00
2019-02-25T20:53:32.227Z,157.60
2019-02-25T20:59:30.903Z,146.70
2019-02-25T21:05:30.343Z,132.00
2019-02-25T21:11:30.234Z,125.20
2019-02-25T21:17:30.879Z,115.70
2019-02-25T21:23:30.249Z,110.90
2019-02-25T21:29:31.749Z,95.20
2019-02-25T21:35:34.142Z,341.40
2019-02-25T21:41:30.281Z,377.10
2019-02-25T21:47:30.932Z,275.90
2019-02-25T21:53:31.405Z,246.90
2019-02-25T21:59:31.867Z,222.60
2019-02-25T22:05:30.313Z,228.80
2019-02-25T22:44:51.579Z,357.30
2019-02-25T22:50:51.373Z,458.30
2019-02-25T22:56:49.697Z,440.90
2019-02-25T23:02:52.151Z,384.70
2019-02-25T23:08:51.101Z,371.00
2019-02-25T23:14:49.833Z,355.80
2019-02-25T23:20:50.836Z,345.00
2019-02-25T23:26:50.730Z,322.40
2019-02-25T23:32:49.786Z,295.10
2019-02-25T23:38:50.696Z,285.90
2019-02-25T23:44:49.782Z,275.60
2019-02-25T23:50:50.318Z,241.10
2019-02-25T23:56:52.005Z,237.30
